Time;durP1;ratioP1;P1;durP2;ratioP2;P2;SDS_P1;SDS_P2;PMS_P1;PMS_P2;Temp;Humidity;BMP_temperature;BMP_pressure;BME280_temperature;BME280_humidity;BME280_pressure;Samples;Min_cycle;Max_cycle;Signal;HPM_P1;HPM_P2
2022/07/09 00:00:22;;;;;;;0.60;0.60;;;11.10;1.40;;;12.21;100.00;96481.66;653710;216;32077;-78
2022/07/09 00:03:04;;;;;;;1.20;1.10;;;11.20;1.40;;;12.32;100.00;96483.35;652419;216;31542;-78
2022/07/09 00:05:51;;;;;;;1.03;0.93;;;11.20;1.40;;;12.23;100.00;96480.33;619026;226;42821;-77
2022/07/09 00:08:35;;;;;;;3.97;0.70;;;11.20;1.40;;;12.26;100.00;96481.16;645714;216;31504;-76
2022/07/09 00:11:17;;;;;;;2.10;1.00;;;11.20;1.40;;;12.28;100.00;96476.71;646557;216;31526;-77
2022/07/09 00:13:59;;;;;;;1.00;0.97;;;11.20;1.40;;;12.17;100.00;96472.30;618032;225;32497;-77
2022/07/09 00:16:40;;;;;;;2.05;0.70;;;11.10;1.40;;;12.10;100.00;96471.98;651585;216;31482;-76
2022/07/09 00:19:22;;;;;;;0.90;0.77;;;11.10;1.40;;;12.06;100.00;96467.13;618922;226;31824;-76
2022/07/09 00:22:05;;;;;;;1.48;0.75;;;11.00;1.40;;;11.99;100.00;96465.67;646489;216;42092;-76
2022/07/09 00:24:46;;;;;;;3.60;0.80;;;11.00;1.40;;;11.99;100.00;96465.34;646505;212;31565;-76
2022/07/09 00:27:27;;;;;;;1.73;1.02;;;11.00;1.40;;;12.02;100.00;96463.57;646910;212;42172;-77
2022/07/09 00:30:10;;;;;;;0.88;0.68;;;11.00;1.40;;;12.01;100.00;96459.08;650051;216;31525;-76
2022/07/09 00:32:51;;;;;;;1.80;1.00;;;11.00;1.40;;;11.99;100.00;96457.35;651417;216;31691;-76
2022/07/09 00:35:50;;;;;;;1.00;0.60;;;10.90;1.40;;;11.89;100.00;96451.45;645797;216;31689;-76
2022/07/09 00:38:32;;;;;;;0.73;0.63;;;10.80;1.40;;;11.81;100.00;96452.79;649076;216;31498;-76
2022/07/09 00:41:14;;;;;;;1.62;0.60;;;10.80;1.40;;;11.76;100.00;96445.05;646890;212;31539;-76
2022/07/09 00:43:56;;;;;;;1.50;0.60;;;10.80;1.40;;;11.78;100.00;96441.55;648223;216;32414;-76
2022/07/09 00:46:43;;;;;;;1.80;0.50;;;10.70;1.40;;;11.76;100.00;96438.80;650687;212;31503;-79
2022/07/09 00:49:27;;;;;;;1.70;1.20;;;10.70;1.40;;;11.73;100.00;96440.30;651728;216;31559;-76
2022/07/09 00:52:09;;;;;;;0.73;0.73;;;10.70;1.40;;;11.78;100.00;96436.81;649710;216;42107;-77
2022/07/09 00:54:50;;;;;;;0.80;0.50;;;10.90;1.40;;;11.72;100.00;96437.91;649568;216;31547;-76
2022/07/09 00:57:32;;;;;;;1.67;0.87;;;10.70;1.40;;;11.67;100.00;96434.50;646460;216;31533;-76
2022/07/09 01:00:14;;;;;;;1.00;0.90;;;10.60;1.40;;;11.71;100.00;96433.27;651082;216;31496;-76
2022/07/09 01:02:56;;;;;;;2.20;0.70;;;10.80;1.40;;;11.75;100.00;96429.89;644141;216;31654;-76
2022/07/09 01:05:37;;;;;;;1.48;1.08;;;10.80;1.40;;;11.78;100.00;96433.23;648097;216;33285;-76
2022/07/09 01:08:19;;;;;;;0.73;0.70;;;10.90;1.40;;;11.77;100.00;96434.55;646818;216;31551;-76
2022/07/09 01:11:01;;;;;;;1.10;1.00;;;10.90;1.40;;;11.74;100.00;96427.45;620368;225;32134;-76
2022/07/09 01:13:42;;;;;;;0.70;0.70;;;10.80;1.40;;;11.73;100.00;96428.94;650563;216;31518;-76
2022/07/09 01:16:24;;;;;;;0.90;0.90;;;10.80;1.40;;;11.72;100.00;96422.05;644586;216;31509;-76
2022/07/09 01:19:06;;;;;;;3.20;0.90;;;10.80;1.40;;;11.74;100.00;96422.73;646240;216;32489;-76
2022/07/09 01:21:47;;;;;;;3.90;0.80;;;10.90;1.40;;;11.78;100.00;96419.05;651149;216;37896;-76
2022/07/09 01:24:29;;;;;;;1.20;0.70;;;10.80;1.40;;;11.82;100.00;96417.78;651201;216;31548;-76
2022/07/09 01:27:11;;;;;;;1.07;0.63;;;10.90;1.40;;;11.73;100.00;96419.09;648695;216;31510;-76
2022/07/09 01:29:52;;;;;;;0.85;0.85;;;10.80;1.40;;;11.74;100.00;96415.94;648625;216;31517;-76
2022/07/09 01:32:34;;;;;;;1.00;0.90;;;10.60;1.40;;;11.57;100.00;96414.95;646840;216;31542;-76
2022/07/09 01:35:54;;;;;;;0.70;0.60;;;10.50;1.40;;;11.51;100.00;96414.59;652320;216;31541;-76
2022/07/09 01:38:36;;;;;;;2.10;0.60;;;10.60;1.40;;;11.57;100.00;96417.83;650513;212;43030;-76
2022/07/09 01:41:17;;;;;;;4.30;0.77;;;10.60;1.40;;;11.56;100.00;96414.80;645855;216;42704;-76
2022/07/09 01:43:59;;;;;;;0.70;0.68;;;10.60;1.40;;;11.51;100.00;96411.72;647604;216;34113;-76
2022/07/09 01:46:41;;;;;;;0.90;0.73;;;10.50;1.40;;;11.53;100.00;96402.66;644123;216;31497;-77
2022/07/09 01:51:57;;;;;;;0.85;0.75;;;10.80;1.40;;;11.84;100.00;96407.22;625837;222;42685;-77
2022/07/09 01:54:39;;;;;;;1.50;0.60;;;11.00;1.40;;;11.94;100.00;96405.23;645773;216;31612;-77
2022/07/09 01:57:20;;;;;;;0.70;0.67;;;11.10;1.40;;;12.03;100.00;96398.83;652003;216;32031;-76
2022/07/09 02:00:03;;;;;;;0.83;0.60;;;11.10;1.40;;;12.06;100.00;96397.20;651711;212;42691;-76
2022/07/09 02:02:44;;;;;;;3.80;1.20;;;11.20;1.40;;;11.98;100.00;96391.86;647339;216;32313;-76
2022/07/09 02:05:25;;;;;;;3.10;0.77;;;11.00;1.40;;;11.88;100.00;96391.04;647357;216;31682;-77
2022/07/09 02:08:07;;;;;;;1.10;0.70;;;10.90;1.40;;;11.78;100.00;96382.02;619904;226;31891;-76
2022/07/09 02:10:49;;;;;;;2.20;0.80;;;10.80;1.40;;;11.77;100.00;96384.23;647200;216;31558;-76
2022/07/09 02:13:30;;;;;;;1.80;0.50;;;10.80;1.40;;;11.89;100.00;96382.16;644639;216;31573;-76
2022/07/09 02:16:12;;;;;;;1.00;0.53;;;10.90;1.40;;;11.92;100.00;96382.38;648063;216;31538;-77
2022/07/09 02:18:57;;;;;;;0.90;0.67;;;11.00;1.40;;;12.00;100.00;96385.33;643624;212;31927;-76
2022/07/09 02:21:39;;;;;;;1.00;0.50;;;11.00;1.40;;;11.96;100.00;96378.79;649196;216;42196;-76
2022/07/09 02:24:20;;;;;;;2.10;0.80;;;11.00;1.40;;;11.98;100.00;96377.79;653420;216;31881;-76
2022/07/09 02:27:02;;;;;;;1.00;0.75;;;11.00;1.40;;;12.03;100.00;96379.41;649296;216;31619;-76
2022/07/09 02:29:44;;;;;;;1.23;0.73;;;11.10;1.40;;;12.05;100.00;96378.20;649558;212;31505;-76
2022/07/09 02:32:25;;;;;;;0.83;0.80;;;11.10;1.40;;;12.10;100.00;96373.81;648445;216;31508;-77
2022/07/09 02:35:51;;;;;;;0.80;0.80;;;11.10;1.40;;;12.18;100.00;96374.95;650215;216;31656;-76
2022/07/09 02:38:33;;;;;;;1.70;0.90;;;11.20;1.40;;;12.29;100.00;96370.16;620732;222;31870;-76
2022/07/09 02:41:14;;;;;;;0.60;0.60;;;11.30;1.40;;;12.39;100.00;96368.71;647941;212;31553;-76
2022/07/09 02:43:56;;;;;;;1.63;0.80;;;11.40;1.40;;;12.37;100.00;96369.01;647752;216;31675;-76
2022/07/09 02:46:40;;;;;;;2.27;0.70;;;11.40;1.40;;;12.24;100.00;96364.92;647322;216;31554;-79
2022/07/09 02:49:27;;;;;;;1.70;1.20;;;11.30;1.40;;;12.27;100.00;96364.72;651079;216;31934;-76
2022/07/09 02:52:12;;;;;;;1.98;0.70;;;11.20;1.40;;;12.39;100.00;96356.20;645883;212;31578;-76
2022/07/09 02:54:54;;;;;;;1.00;0.85;;;11.20;1.40;;;12.51;100.00;96354.59;648105;212;37829;-76
2022/07/09 02:57:42;;;;;;;3.53;0.77;;;11.30;1.40;;;12.58;100.00;96351.00;643133;215;31545;-79
2022/07/09 03:00:26;;;;;;;1.27;1.17;;;11.40;1.40;;;12.53;100.00;96345.81;648517;212;32136;-76
2022/07/09 03:03:07;;;;;;;1.20;0.80;;;11.40;1.40;;;12.57;100.00;96348.35;646616;216;31568;-77
2022/07/09 03:06:23;;;;;;;1.10;0.80;;;11.40;1.40;;;12.69;100.00;96350.16;651940;216;31493;-76
2022/07/09 03:09:04;;;;;;;1.20;0.70;;;11.50;1.40;;;12.77;100.00;96352.16;623727;222;32961;-76
2022/07/09 03:11:46;;;;;;;1.10;0.77;;;11.60;1.40;;;12.80;100.00;96356.46;649566;212;31599;-76
2022/07/09 03:14:28;;;;;;;1.20;0.70;;;11.60;1.40;;;12.88;100.00;96359.25;648337;216;34867;-76
2022/07/09 03:17:10;;;;;;;0.83;0.67;;;11.60;1.40;;;13.00;100.00;96358.39;646555;216;31458;-78
2022/07/09 03:19:51;;;;;;;0.70;0.70;;;11.60;1.40;;;12.86;100.00;96366.80;648039;216;32337;-76
2022/07/09 03:22:33;;;;;;;0.70;0.68;;;11.60;1.40;;;12.86;100.00;96362.54;651695;216;32724;-77
2022/07/09 03:25:18;;;;;;;0.90;0.70;;;11.60;1.40;;;12.94;100.00;96369.66;645125;216;31534;-76
2022/07/09 03:27:59;;;;;;;1.20;1.10;;;11.70;1.40;;;12.98;100.00;96366.06;648414;212;33523;-77
2022/07/09 03:30:44;;;;;;;1.00;0.90;;;11.80;1.40;;;13.04;100.00;96369.25;651790;216;31526;-76
2022/07/09 03:35:50;;;;;;;0.93;0.82;;;11.70;1.40;;;12.88;100.00;96371.66;651442;216;31517;-76
2022/07/09 03:38:38;;;;;;;1.77;0.80;;;11.70;1.40;;;12.93;100.00;96367.06;617231;226;32574;-78
2022/07/09 03:41:26;;;;;;;1.10;0.85;;;11.70;1.40;;;13.00;100.00;96372.66;631853;221;31608;-76
2022/07/09 03:44:10;;;;;;;0.90;0.80;;;11.70;1.40;;;12.94;100.00;96371.77;647534;216;31615;-78
2022/07/09 03:46:53;;;;;;;1.10;0.80;;;11.60;1.40;;;12.90;100.00;96369.61;647336;216;31936;-76
2022/07/09 03:49:35;;;;;;;1.80;1.10;;;11.60;1.40;;;12.87;100.00;96366.98;623820;226;31930;-76
2022/07/09 03:54:54;;;;;;;1.00;0.60;;;11.50;1.40;;;12.90;100.00;96369.89;647064;216;31529;-78
2022/07/09 03:57:36;;;;;;;0.80;0.70;;;11.50;1.40;;;12.83;100.00;96372.05;650700;212;33827;-76
2022/07/09 04:00:18;;;;;;;1.10;0.57;;;11.50;1.40;;;12.84;100.00;96377.59;645224;212;31485;-76
2022/07/09 04:02:59;;;;;;;1.00;0.60;;;11.50;1.40;;;12.97;100.00;96377.28;647839;216;31829;-76
2022/07/09 04:05:44;;;;;;;0.70;0.50;;;11.60;1.40;;;13.09;100.00;96385.12;649005;216;42147;-76
2022/07/09 04:08:26;;;;;;;1.15;0.60;;;11.70;1.40;;;13.21;100.00;96383.08;651174;216;31707;-76
2022/07/09 04:11:07;;;;;;;1.00;0.90;;;11.80;1.40;;;13.37;100.00;96384.20;650463;216;31497;-76
2022/07/09 04:13:49;;;;;;;2.40;1.08;;;11.90;1.40;;;13.50;100.00;96385.75;647323;216;35534;-76
2022/07/09 04:16:37;;;;;;;0.90;0.70;;;12.00;1.40;;;13.51;100.00;96386.50;649225;216;31571;-78
2022/07/09 04:19:25;;;;;;;1.35;0.90;;;12.10;1.40;;;13.52;100.00;96384.45;644760;212;39161;-76
2022/07/09 04:22:06;;;;;;;1.30;0.70;;;12.20;1.40;;;13.62;100.00;96389.27;642144;220;31712;-76
2022/07/09 04:24:48;;;;;;;0.93;0.70;;;12.40;1.40;;;13.63;100.00;96383.47;645733;212;32470;-76
2022/07/09 04:27:30;;;;;;;1.10;0.90;;;12.40;1.40;;;13.68;100.00;96387.64;650245;216;32101;-76
2022/07/09 04:30:11;;;;;;;1.80;0.73;;;12.40;1.40;;;13.76;100.00;96386.84;648664;216;31972;-76
2022/07/09 04:32:53;;;;;;;0.90;0.90;;;12.50;1.40;;;13.74;100.00;96388.87;649259;216;42213;-76
2022/07/09 04:35:51;;;;;;;0.88;0.73;;;12.50;1.40;;;13.69;100.00;96393.82;646448;216;31559;-76
2022/07/09 04:38:32;;;;;;;0.90;0.80;;;12.50;1.40;;;13.81;100.00;96390.47;643986;212;42956;-76
2022/07/09 04:41:14;;;;;;;1.02;0.88;;;12.50;1.40;;;13.86;100.00;96392.88;654002;216;31657;-76
2022/07/09 04:43:56;;;;;;;2.80;0.70;;;12.50;1.40;;;14.08;100.00;96391.77;647801;216;31468;-76
2022/07/09 04:46:38;;;;;;;1.10;0.90;;;12.60;1.40;;;14.15;100.00;96392.89;647242;212;31486;-76
2022/07/09 04:49:20;;;;;;;1.58;0.98;;;12.80;1.40;;;14.21;100.00;96394.41;652148;216;32473;-76
2022/07/09 04:52:05;;;;;;;2.50;1.10;;;12.90;1.40;;;14.04;100.00;96388.89;646966;216;42237;-76
2022/07/09 04:54:47;;;;;;;2.08;1.10;;;12.80;1.40;;;14.10;100.00;96392.86;648058;216;42591;-76
2022/07/09 04:57:28;;;;;;;1.75;1.10;;;12.80;1.40;;;14.07;100.00;96389.92;620048;222;31913;-77
2022/07/09 05:00:11;;;;;;;1.62;0.50;;;12.80;1.40;;;14.03;100.00;96387.83;649435;213;31537;-76
2022/07/09 05:02:53;;;;;;;3.80;0.80;;;12.80;1.40;;;14.08;100.00;96383.91;619671;226;42533;-76
2022/07/09 05:05:35;;;;;;;1.20;0.80;;;12.90;1.40;;;14.09;100.00;96383.98;653310;216;31508;-76
2022/07/09 05:08:17;;;;;;;1.25;1.15;;;12.90;1.40;;;14.14;100.00;96386.22;646360;216;42511;-76
2022/07/09 05:10:59;;;;;;;1.10;1.00;;;13.00;1.40;;;14.21;100.00;96383.06;653770;216;31630;-77
2022/07/09 05:13:41;;;;;;;0.90;0.80;;;13.10;1.40;;;14.29;100.00;96381.15;644155;216;31577;-77
2022/07/09 05:16:22;;;;;;;0.90;0.60;;;13.20;1.40;;;14.44;100.00;96383.66;648733;216;32150;-77
2022/07/09 05:19:04;;;;;;;0.80;0.80;;;13.30;1.40;;;14.64;100.00;96381.55;646711;216;42362;-76
2022/07/09 05:21:46;;;;;;;0.93;0.60;;;13.50;1.40;;;14.79;100.00;96387.02;647597;216;42246;-76
2022/07/09 05:24:27;;;;;;;0.98;0.88;;;13.60;1.40;;;14.86;100.00;96384.45;646448;216;35853;-76
2022/07/09 05:27:09;;;;;;;2.72;1.05;;;13.60;1.40;;;14.93;100.00;96388.04;651261;216;31490;-76
2022/07/09 05:29:54;;;;;;;0.85;0.80;;;13.70;1.40;;;15.07;100.00;96383.64;647015;216;31636;-77
2022/07/09 05:32:35;;;;;;;1.40;0.88;;;13.90;1.40;;;15.26;100.00;96385.55;648428;216;31513;-76
2022/07/09 05:35:52;;;;;;;1.10;1.00;;;13.90;1.40;;;15.34;100.00;96390.44;650071;216;31621;-77
2022/07/09 05:38:36;;;;;;;2.25;1.00;;;14.00;1.40;;;15.60;100.00;96391.67;645119;216;31480;-76
2022/07/09 05:41:19;;;;;;;1.00;0.90;;;14.10;1.40;;;15.66;100.00;96394.66;647748;216;31531;-76
2022/07/09 05:44:03;;;;;;;1.20;1.00;;;14.20;1.40;;;15.71;100.00;96394.42;647794;216;31531;-77
2022/07/09 05:46:42;;;;;;;1.20;0.93;;;14.30;1.40;;;15.92;100.00;96398.42;648529;216;31533;-78
2022/07/09 05:49:23;;;;;;;1.77;1.25;;;14.50;1.40;;;15.94;100.00;96398.23;649008;216;32116;-76
2022/07/09 05:52:05;;;;;;;0.75;0.70;;;14.50;1.40;;;16.27;100.00;96401.55;648888;212;31719;-75
2022/07/09 05:54:47;;;;;;;1.83;1.00;;;14.70;1.40;;;16.50;100.00;96397.48;625326;226;31922;-75
2022/07/09 05:57:29;;;;;;;0.70;0.70;;;15.10;1.40;;;16.74;100.00;96402.39;652376;216;31542;-75
2022/07/09 06:00:11;;;;;;;2.00;1.10;;;15.40;1.40;;;17.04;100.00;96399.34;646123;216;31543;-75
2022/07/09 06:02:53;;;;;;;1.20;1.10;;;15.40;1.40;;;17.39;100.00;96404.30;649554;212;31542;-75
2022/07/09 06:05:37;;;;;;;2.50;0.90;;;15.70;1.40;;;18.03;100.00;96404.19;647323;212;33115;-75
2022/07/09 06:08:19;;;;;;;1.52;1.00;;;16.00;1.40;;;17.61;100.00;96404.01;645432;216;31613;-75
2022/07/09 06:11:04;;;;;;;2.60;1.10;;;15.70;1.40;;;17.64;100.00;96401.77;651434;216;32293;-75
2022/07/09 06:13:45;;;;;;;1.77;1.08;;;15.60;1.40;;;17.39;100.00;96405.66;649881;212;31495;-75
2022/07/09 06:16:27;;;;;;;1.48;0.90;;;15.50;1.40;;;17.67;100.00;96411.80;646646;216;31940;-75
2022/07/09 06:19:18;;;;;;;4.12;1.65;;;15.90;1.40;;;17.93;100.00;96410.34;646158;216;31530;-77
2022/07/09 06:22:00;;;;;;;3.50;1.33;;;16.20;1.40;;;18.13;100.00;96408.98;648071;216;42690;-76
2022/07/09 06:24:41;;;;;;;1.50;0.88;;;16.20;1.40;;;18.25;100.00;96411.19;647270;216;42165;-76
2022/07/09 06:27:23;;;;;;;1.62;1.15;;;16.50;1.40;;;18.48;100.00;96410.58;653670;216;31654;-75
2022/07/09 06:30:06;;;;;;;2.33;1.70;;;16.80;1.40;;;17.91;100.00;96411.55;646942;212;31516;-75
2022/07/09 06:32:48;;;;;;;1.87;1.00;;;16.20;1.40;;;17.68;100.00;96409.76;648790;216;31497;-76
2022/07/09 06:35:51;;;;;;;0.80;0.80;;;16.10;1.40;;;17.59;100.00;96406.55;646095;216;31487;-76
2022/07/09 06:39:44;;;;;;;2.95;1.40;;;16.30;1.40;;;17.38;100.00;96407.45;649621;216;32236;-75
2022/07/09 06:41:14;;;;;;;1.90;1.10;;;16.10;1.40;;;17.27;100.00;96411.39;646606;216;31704;-75
2022/07/09 06:43:56;;;;;;;1.05;0.98;;;16.10;1.40;;;17.84;100.00;96410.61;646620;216;31616;-76
2022/07/09 06:46:40;;;;;;;3.10;1.20;;;16.50;1.40;;;18.07;100.00;96413.67;620132;222;31863;-76
2022/07/09 06:49:22;;;;;;;1.10;1.00;;;16.40;1.40;;;17.90;100.00;96412.66;648360;212;31706;-75
2022/07/09 06:52:04;;;;;;;2.30;0.90;;;16.50;1.40;;;18.33;100.00;96415.53;645763;216;31467;-75
2022/07/09 06:54:46;;;;;;;1.40;1.30;;;16.60;1.40;;;18.13;100.00;96412.84;650169;216;31522;-76
2022/07/09 06:57:30;;;;;;;2.22;1.40;;;16.60;1.40;;;17.97;100.00;96413.22;627687;222;31814;-76
2022/07/09 07:00:10;;;;;;;1.25;1.15;;;16.80;1.40;;;18.46;100.00;96414.30;645203;216;31530;-75
2022/07/09 07:02:51;;;;;;;1.65;1.27;;;17.10;1.40;;;18.83;100.00;96417.94;646675;216;31544;-75
2022/07/09 07:05:33;;;;;;;0.90;0.80;;;17.20;1.40;;;18.68;100.00;96415.12;649081;212;31543;-76
2022/07/09 07:08:15;;;;;;;3.20;1.27;;;17.20;1.40;;;18.76;100.00;96412.86;652629;216;31523;-75
2022/07/09 07:10:58;;;;;;;1.20;1.10;;;17.20;1.40;;;19.03;100.00;96407.91;645219;212;31477;-76
2022/07/09 07:13:39;;;;;;;1.80;1.15;;;17.40;1.40;;;18.42;100.00;96414.03;647977;216;31538;-76
2022/07/09 07:16:21;;;;;;;1.50;0.90;;;17.00;1.40;;;18.41;100.00;96415.05;647776;216;31479;-76
2022/07/09 07:19:03;;;;;;;3.10;1.20;;;17.00;1.40;;;18.75;100.00;96408.93;645505;212;32150;-76
2022/07/09 07:21:44;;;;;;;0.90;0.80;;;17.50;1.40;;;19.13;100.00;96410.48;655829;216;31665;-76
2022/07/09 07:24:26;;;;;;;1.75;0.90;;;17.40;1.40;;;18.86;100.00;96409.04;645740;216;31607;-76
2022/07/09 07:27:09;;;;;;;1.10;1.00;;;17.20;1.40;;;19.00;100.00;96405.39;649587;216;31587;-75
2022/07/09 07:32:28;;;;;;;0.80;0.70;;;17.10;1.40;;;18.52;100.00;96405.16;648449;216;31703;-76
2022/07/09 07:35:51;;;;;;;1.10;0.80;;;17.00;1.40;;;18.54;100.00;96396.67;651635;216;31712;-76
2022/07/09 07:38:35;;;;;;;0.80;0.80;;;17.10;1.40;;;18.67;100.00;96394.54;648917;216;31519;-76
2022/07/09 07:41:18;;;;;;;2.40;0.70;;;17.30;1.40;;;18.73;100.00;96391.70;647248;212;31473;-76
2022/07/09 07:43:59;;;;;;;0.90;0.80;;;17.40;1.40;;;18.78;100.00;96391.70;644220;216;31644;-76
2022/07/09 07:46:40;;;;;;;1.95;1.10;;;17.60;1.40;;;19.33;100.00;96386.53;648097;216;32115;-75
2022/07/09 07:49:25;;;;;;;1.48;1.33;;;18.00;1.40;;;19.31;100.00;96391.45;651040;216;31515;-76
2022/07/09 07:52:07;;;;;;;1.27;1.10;;;17.70;1.40;;;19.35;99.25;96391.70;645861;216;31614;-76
2022/07/09 07:54:50;;;;;;;1.00;0.70;;;17.90;1.40;;;19.62;100.00;96385.62;646762;216;31506;-75
2022/07/09 07:57:32;;;;;;;2.10;1.00;;;18.10;1.40;;;19.65;99.07;96392.80;653326;216;42199;-76
2022/07/09 08:00:13;;;;;;;1.20;1.00;;;18.10;1.40;;;19.19;100.00;96390.35;650873;216;32481;-75
2022/07/09 08:02:55;;;;;;;2.30;0.80;;;17.70;1.40;;;19.60;100.00;96388.07;648922;216;31859;-75
2022/07/09 08:05:37;;;;;;;1.90;0.90;;;18.20;1.40;;;19.13;100.00;96390.69;653154;216;31559;-76
2022/07/09 08:08:18;;;;;;;4.40;1.40;;;17.80;1.40;;;19.29;100.00;96390.16;647988;216;31564;-76
2022/07/09 08:11:03;;;;;;;1.60;0.90;;;17.90;1.40;;;19.34;100.00;96391.91;648420;212;31562;-76
2022/07/09 08:13:45;;;;;;;2.40;1.50;;;18.10;1.40;;;19.48;100.00;96385.72;648953;216;42152;-77
2022/07/09 08:16:27;;;;;;;1.80;1.20;;;18.30;1.40;;;19.39;100.00;96385.89;646521;216;42131;-76
2022/07/09 08:19:13;;;;;;;3.30;1.00;;;18.30;1.40;;;19.68;97.24;96376.89;649339;216;42112;-76
2022/07/09 08:21:53;;;;;;;3.40;1.48;;;18.50;1.40;;;19.97;96.27;96375.24;650070;216;31529;-75
2022/07/09 08:24:35;;;;;;;1.33;0.80;;;18.80;1.40;;;20.20;98.10;96374.30;647218;212;32616;-76
2022/07/09 08:27:17;;;;;;;0.80;0.80;;;19.10;1.40;;;20.32;83.39;96376.41;647111;216;31621;-76
2022/07/09 08:29:58;;;;;;;1.20;0.70;;;19.10;1.40;;;20.53;87.13;96381.56;646489;212;31547;-75
2022/07/09 08:35:51;;;;;;;1.70;1.20;;;19.50;1.40;;;20.51;81.59;96375.47;644687;216;31581;-76
2022/07/09 08:38:33;;;;;;;1.20;0.82;;;19.40;1.40;;;20.89;80.30;96368.41;646588;216;31716;-76
2022/07/09 08:41:19;;;;;;;3.60;0.70;;;19.80;1.40;;;21.01;79.15;96365.61;646247;216;31558;-76
2022/07/09 08:43:56;;;;;;;3.37;0.95;;;19.90;1.40;;;21.00;80.01;96361.64;646399;212;31506;-76
2022/07/09 08:46:38;;;;;;;1.70;0.95;;;19.80;1.40;;;21.17;78.50;96360.81;647105;213;32062;-75
2022/07/09 08:49:20;;;;;;;0.77;0.75;;;20.00;1.40;;;21.15;75.54;96357.78;647800;213;32051;-76
2022/07/09 08:52:01;;;;;;;0.85;0.70;;;20.00;1.40;;;21.17;72.96;96353.66;645102;216;32111;-76
2022/07/09 08:54:43;;;;;;;1.00;0.90;;;19.90;1.40;;;21.26;74.57;96351.20;618881;226;32273;-76
2022/07/09 08:57:25;;;;;;;2.00;0.70;;;20.10;1.40;;;21.41;72.00;96345.53;647867;212;31902;-76
2022/07/09 09:00:07;;;;;;;0.80;0.60;;;20.20;1.40;;;21.98;72.83;96338.95;647760;216;31677;-75
2022/07/09 09:02:49;;;;;;;0.90;0.62;;;20.70;1.40;;;22.08;72.84;96339.53;648531;216;36067;-76
2022/07/09 09:05:31;;;;;;;1.05;0.85;;;20.70;1.40;;;21.57;73.25;96332.95;649395;216;31646;-76
2022/07/09 09:08:19;;;;;;;1.30;0.70;;;20.20;1.40;;;22.03;75.25;96333.16;647900;212;31497;-76
2022/07/09 09:11:00;;;;;;;2.50;1.10;;;20.60;1.40;;;22.23;74.89;96330.58;648247;216;31534;-76
2022/07/09 09:13:44;;;;;;;4.60;1.15;;;20.90;1.40;;;22.34;74.38;96327.05;646703;216;31573;-75
2022/07/09 09:16:26;;;;;;;1.25;0.60;;;21.40;1.40;;;23.00;74.43;96323.05;645762;216;31641;-76
2022/07/09 09:19:07;;;;;;;1.10;0.97;;;22.10;1.40;;;23.32;68.77;96319.64;648417;216;31639;-76
2022/07/09 09:21:53;;;;;;;3.37;0.98;;;22.20;1.40;;;23.29;69.91;96321.11;632933;218;32253;-76
2022/07/09 09:24:34;;;;;;;1.40;0.80;;;21.90;1.40;;;23.57;65.29;96316.19;646497;216;42073;-76
2022/07/09 09:27:15;;;;;;;2.00;1.10;;;22.30;1.40;;;23.50;67.27;96315.94;646509;216;31844;-76
2022/07/09 09:29:56;;;;;;;1.00;0.70;;;22.10;1.40;;;24.56;65.28;96309.11;649766;212;31508;-76
2022/07/09 09:32:38;;;;;;;0.90;0.70;;;24.80;1.40;;;26.14;62.94;96303.77;645638;216;42157;-76
2022/07/09 09:35:51;;;;;;;3.37;0.73;;;27.10;1.40;;;25.38;61.33;96311.00;645866;216;31727;-76
2022/07/09 09:38:33;;;;;;;2.50;0.80;;;25.20;1.40;;;25.23;61.12;96306.78;618290;222;43273;-76
2022/07/09 09:41:15;;;;;;;2.67;0.93;;;24.60;1.40;;;25.45;58.83;96308.08;646042;216;31841;-76
2022/07/09 09:43:56;;;;;;;1.20;0.70;;;23.70;1.40;;;24.93;61.31;96310.69;648405;216;31526;-76
2022/07/09 09:46:38;;;;;;;0.75;0.70;;;22.60;1.40;;;24.55;61.45;96313.48;619617;226;31952;-76
2022/07/09 09:49:20;;;;;;;1.90;1.50;;;22.60;1.40;;;23.13;62.34;96320.55;643081;215;33573;-76
2022/07/09 09:52:05;;;;;;;1.20;0.70;;;20.80;1.40;;;22.80;65.21;96317.65;648194;216;31719;-76
2022/07/09 09:54:47;;;;;;;2.10;1.00;;;20.80;1.40;;;23.04;62.52;96315.45;647541;212;31634;-76
2022/07/09 09:57:28;;;;;;;1.00;0.70;;;21.20;1.40;;;23.42;64.36;96316.98;650982;216;31591;-75
2022/07/09 10:00:11;;;;;;;1.90;0.70;;;21.70;1.40;;;22.96;63.94;96316.42;651189;212;31781;-77
2022/07/09 10:02:53;;;;;;;1.70;0.80;;;21.30;1.40;;;23.52;62.13;96304.22;647702;216;31522;-77
2022/07/09 10:05:35;;;;;;;3.10;0.80;;;21.80;1.40;;;24.38;62.78;96299.89;649839;212;31501;-76
2022/07/09 10:08:17;;;;;;;1.00;0.80;;;22.70;1.40;;;25.09;59.50;96298.38;645103;216;31469;-77
2022/07/09 10:10:58;;;;;;;2.47;1.27;;;23.00;1.40;;;25.11;59.11;96294.60;650070;216;37404;-76
2022/07/09 10:13:55;;;;;;;0.90;0.70;;;24.20;1.40;;;25.33;59.82;96293.20;648425;212;31525;-76
2022/07/09 10:16:40;;;;;;;1.10;1.00;;;23.90;1.40;;;25.07;60.10;96292.91;648402;216;31543;-75
2022/07/09 10:19:28;;;;;;;3.00;1.30;;;22.70;1.40;;;24.45;59.82;96296.63;650365;216;31616;-76
2022/07/09 10:22:10;;;;;;;1.02;0.80;;;21.80;1.40;;;24.08;60.78;96292.81;645162;216;31648;-76
2022/07/09 10:24:52;;;;;;;1.67;0.80;;;21.60;1.40;;;24.06;60.65;96292.70;649249;216;31524;-77
2022/07/09 10:27:44;;;;;;;1.20;0.90;;;22.00;1.40;;;25.77;59.49;96288.53;647109;216;31525;-76
2022/07/09 10:30:30;;;;;;;1.00;0.75;;;24.10;1.40;;;26.02;57.34;96290.16;649914;216;31528;-76
2022/07/09 10:35:54;;;;;;;1.42;0.90;;;26.40;1.40;;;29.94;50.17;96283.88;644200;216;42352;-77
2022/07/09 10:38:36;;;;;;;0.80;0.70;;;28.90;1.40;;;31.57;45.17;96281.47;649963;212;31515;-76
2022/07/09 10:41:27;;;;;;;1.85;0.90;;;28.60;1.40;;;29.08;45.22;96286.20;643193;213;31971;-80
2022/07/09 10:44:14;;;;;;;1.87;1.10;;;27.50;1.40;;;31.80;42.45;96269.59;647453;216;31497;-77
2022/07/09 10:46:57;;;;;;;2.50;1.60;;;28.50;1.40;;;29.34;45.58;96277.75;646226;216;31511;-77
2022/07/09 10:49:38;;;;;;;3.15;1.30;;;27.20;1.40;;;28.24;43.92;96272.94;647534;216;31555;-77
2022/07/09 10:52:20;;;;;;;3.25;1.20;;;26.10;1.40;;;30.16;46.42;96272.38;647996;216;31957;-77
2022/07/09 10:55:05;;;;;;;0.77;0.77;;;26.90;1.40;;;30.65;40.68;96269.56;646720;213;31574;-77
2022/07/09 10:57:47;;;;;;;3.15;0.73;;;26.00;1.40;;;29.18;43.57;96271.98;648734;216;31840;-76
2022/07/09 11:00:29;;;;;;;1.37;0.80;;;24.00;1.40;;;27.64;46.81;96276.01;622424;222;31916;-77
2022/07/09 11:03:10;;;;;;;1.98;0.70;;;23.50;1.40;;;26.45;47.03;96275.47;646833;216;31469;-77
2022/07/09 11:05:55;;;;;;;1.80;1.20;;;22.70;1.40;;;25.73;49.04;96273.92;650185;216;32277;-76
2022/07/09 11:08:37;;;;;;;1.60;0.60;;;22.70;1.40;;;24.53;50.69;96279.16;648353;216;31677;-76
2022/07/09 11:11:21;;;;;;;3.08;1.10;;;21.80;1.40;;;24.41;52.16;96274.03;646700;212;31616;-77
2022/07/09 11:14:03;;;;;;;2.05;0.77;;;23.20;1.40;;;27.71;47.03;96267.92;647708;212;31512;-76
2022/07/09 11:16:44;;;;;;;0.60;0.60;;;26.10;1.40;;;30.19;42.79;96251.43;645882;212;42122;-77
2022/07/09 11:19:26;;;;;;;0.85;0.47;;;27.40;1.40;;;29.51;42.11;96244.30;643623;212;31481;-78
2022/07/09 11:22:08;;;;;;;0.70;0.50;;;27.70;1.40;;;31.89;39.20;96249.74;646434;216;31551;-77
2022/07/09 11:24:52;;;;;;;0.80;0.60;;;28.20;1.40;;;32.87;38.94;96232.45;654814;216;32165;-82
2022/07/09 11:27:36;;;;;;;0.90;0.60;;;27.60;1.40;;;32.61;39.65;96229.50;616533;226;31902;-76
2022/07/09 11:30:18;;;;;;;1.40;0.60;;;28.40;1.40;;;30.94;38.86;96235.72;649709;212;32106;-77
2022/07/09 11:35:52;;;;;;;2.00;0.70;;;25.40;1.40;;;31.23;40.11;96230.20;646441;212;31633;-75
2022/07/09 11:38:34;;;;;;;1.50;0.60;;;24.80;1.40;;;28.03;43.50;96237.85;643913;216;31600;-77
2022/07/09 11:41:16;;;;;;;0.80;0.57;;;23.60;1.40;;;26.40;46.77;96245.66;651230;216;31517;-77
2022/07/09 11:43:57;;;;;;;0.70;0.70;;;24.20;1.40;;;29.39;44.75;96230.38;646694;212;31463;-77
2022/07/09 11:46:39;;;;;;;0.90;0.60;;;26.70;1.40;;;30.54;42.91;96230.55;621479;222;31944;-75